Terminal Aerodrome Forecast
Issued by NWS

Home | Current Version | Previous Version | Text Only | Print | Product List | Glossary Off
Versions: 1 2 3 4 5 6 7 8 9 10 11 12 13 14 15 16 17 18 19 20 21

000
FTUS43 KDLH 260909 AAB
TAFBRD
TAF AMD
KBRD 260909Z 2609/2706 24004KT 6SM -SN BR OVC013
      TEMPO 2610/2612 1 1/2SM BR BKN007 OVC013
     FM261200 29004KT 2SM -SN OVC006
     FM261600 30008KT P6SM BKN025
     FM261800 30010KT P6SM SCT020
     FM270000 28004KT P6SM SCT025 BKN100=

USA.gov is the U.S. government's official web portal to all federal, state and local government web resources and services.